ERV weather

Kerrville Municipal Louis Schreiner Field
Kerrville, Texas, United States

Public forecast

Using degrees Fahrenheit for public forecast. Weather courtesy of forecast.io.

METAR (pilot weather report)

Retrieved 2019/09/17 19:35 UTC (5 minutes ago):

KERV 171935Z AUTO 00000KT 10SM SCT065 33/16 A2995 RMK AO2 T03310163

TAF (pilot weather forecast)

Closest forecast is San Antonio International Airport, 41.7 nm (77.2 km) SE. Retrieved 2019/09/17 18:30 UTC (1 hour ago):

TAF KSAT 171728Z 1718/1824 08008KT P6SM SCT040 BKN250 TEMPO 1718/1721 BKN040 FM180000 05006KT P6SM SCT060 BKN250 FM181100 02007KT P6SM BKN012 FM181800 35012KT P6SM BKN040